createdAt,value
2023-01-29T00:02:23.410Z,3.73
2023-01-29T00:04:53.730Z,3.93
2023-01-29T00:07:26.248Z,3.80
2023-01-29T00:09:55.841Z,4.23
2023-01-29T00:12:27.366Z,3.57
2023-01-29T00:14:56.539Z,3.70
2023-01-29T00:17:25.355Z,4.20
2023-01-29T00:19:54.559Z,3.87
2023-01-29T00:22:23.908Z,3.80
2023-01-29T00:24:53.068Z,3.77
2023-01-29T00:27:22.163Z,4.83
2023-01-29T00:30:10.107Z,5.30
2023-01-29T00:32:38.836Z,5.30
2023-01-29T00:35:11.953Z,6.10
2023-01-29T00:37:41.738Z,5.03
2023-01-29T00:40:12.326Z,4.97
2023-01-29T00:42:58.097Z,5.00
2023-01-29T00:45:28.870Z,4.67
2023-01-29T00:47:58.109Z,5.00
2023-01-29T00:50:27.760Z,4.90
2023-01-29T00:52:57.025Z,4.87
2023-01-29T00:55:26.193Z,4.53
2023-01-29T00:57:55.104Z,4.60
2023-01-29T01:00:25.263Z,5.27
2023-01-29T01:03:06.583Z,5.03
2023-01-29T01:05:37.277Z,4.57
2023-01-29T01:08:28.310Z,4.33
2023-01-29T01:11:01.009Z,5.03
2023-01-29T01:13:30.395Z,4.20
2023-01-29T01:15:59.018Z,4.60
2023-01-29T01:18:32.153Z,4.50
2023-01-29T01:21:01.403Z,5.03
2023-01-29T01:23:32.040Z,4.00
2023-01-29T01:26:00.727Z,5.20
2023-01-29T01:28:30.339Z,5.17
2023-01-29T01:30:59.709Z,5.37
2023-01-29T01:33:30.022Z,5.33
2023-01-29T01:36:03.861Z,5.60
2023-01-29T01:38:32.989Z,5.83
2023-01-29T01:41:01.943Z,6.00
2023-01-29T01:43:31.118Z,5.90
2023-01-29T01:46:00.491Z,6.27
2023-01-29T01:48:31.741Z,6.60
2023-01-29T01:51:04.453Z,6.70
2023-01-29T01:53:39.089Z,6.03
2023-01-29T01:56:11.239Z,6.50
2023-01-29T01:58:43.636Z,6.83
2023-01-29T02:01:13.998Z,6.17
2023-01-29T02:04:04.792Z,7.43
2023-01-29T02:06:52.455Z,7.43
2023-01-29T02:09:47.544Z,7.00
2023-01-29T02:12:18.894Z,6.70
2023-01-29T02:14:48.116Z,7.70
2023-01-29T02:17:20.283Z,7.93
2023-01-29T02:20:00.662Z,8.50
2023-01-29T02:22:57.378Z,8.13
2023-01-29T02:26:01.581Z,8.23
2023-01-29T02:28:42.333Z,7.47
2023-01-29T02:31:18.667Z,7.57
2023-01-29T02:33:57.588Z,6.10
2023-01-29T02:36:35.511Z,5.90
2023-01-29T02:39:13.996Z,5.80
2023-01-29T02:41:49.157Z,6.90
2023-01-29T02:44:25.627Z,5.23
2023-01-29T02:47:01.132Z,5.97
2023-01-29T02:49:37.825Z,6.20
2023-01-29T02:52:11.950Z,5.80
2023-01-29T02:54:46.992Z,6.50
2023-01-29T02:57:26.053Z,5.17
2023-01-29T03:00:00.226Z,5.90
2023-01-29T03:02:35.797Z,4.70
2023-01-29T03:05:10.707Z,4.63
2023-01-29T03:07:45.116Z,5.10
2023-01-29T03:10:39.730Z,5.10
2023-01-29T03:13:15.940Z,5.23
2023-01-29T03:15:52.617Z,5.63
2023-01-29T03:18:46.255Z,6.10
2023-01-29T03:21:35.408Z,6.20
2023-01-29T03:24:25.061Z,6.23
2023-01-29T03:27:11.905Z,5.97
2023-01-29T03:30:05.221Z,5.80
2023-01-29T03:32:53.186Z,5.87
2023-01-29T03:35:33.624Z,6.00
2023-01-29T03:38:04.416Z,7.03
2023-01-29T03:40:40.930Z,5.67
2023-01-29T03:43:16.531Z,6.13
2023-01-29T03:45:58.178Z,5.93
2023-01-29T03:48:37.086Z,5.07
2023-01-29T03:51:21.006Z,4.93
2023-01-29T03:53:57.648Z,3.97
2023-01-29T03:56:41.063Z,4.63
2023-01-29T03:59:22.136Z,5.10
2023-01-29T04:02:15.872Z,4.60
2023-01-29T04:04:48.816Z,3.60
2023-01-29T04:07:24.876Z,3.80
2023-01-29T04:10:06.491Z,4.20
2023-01-29T04:12:44.772Z,4.17
2023-01-29T04:15:17.613Z,3.87
2023-01-29T04:17:53.178Z,4.00
2023-01-29T04:20:47.179Z,3.23
2023-01-29T04:23:25.307Z,3.30
2023-01-29T04:26:08.465Z,3.37
2023-01-29T04:28:55.491Z,3.50
2023-01-29T04:31:26.909Z,3.13
2023-01-29T04:34:04.720Z,3.23
2023-01-29T04:36:43.452Z,3.93
2023-01-29T04:39:19.544Z,3.63
2023-01-29T04:41:54.484Z,4.47
2023-01-29T04:44:34.512Z,4.33
2023-01-29T04:47:12.351Z,4.00
2023-01-29T04:49:47.615Z,3.57
2023-01-29T04:52:26.299Z,4.47
2023-01-29T04:55:06.368Z,3.83
2023-01-29T04:57:39.504Z,3.70
2023-01-29T05:00:15.513Z,3.73
2023-01-29T05:02:46.396Z,3.97
2023-01-29T05:05:18.116Z,4.23
2023-01-29T05:07:50.348Z,4.50
2023-01-29T05:10:21.536Z,4.13
2023-01-29T05:12:56.419Z,4.80
2023-01-29T05:15:28.749Z,4.17
2023-01-29T05:18:02.088Z,3.50
2023-01-29T05:20:33.949Z,4.07
2023-01-29T05:23:04.790Z,4.67
2023-01-29T05:25:35.638Z,3.80
2023-01-29T05:28:06.856Z,3.97
2023-01-29T05:30:37.737Z,3.53
2023-01-29T05:33:13.491Z,4.77
2023-01-29T05:35:42.823Z,4.13
2023-01-29T05:38:13.401Z,4.23
2023-01-29T05:40:43.155Z,3.40
2023-01-29T05:43:18.131Z,4.53
2023-01-29T05:45:55.437Z,4.43
2023-01-29T05:48:24.755Z,4.70
2023-01-29T05:50:53.869Z,4.33
2023-01-29T05:53:25.817Z,4.67
2023-01-29T05:55:57.578Z,4.63
2023-01-29T05:58:26.663Z,5.07
2023-01-29T06:00:55.645Z,4.83
2023-01-29T06:03:24.624Z,5.27
2023-01-29T06:05:53.710Z,5.13
2023-01-29T06:08:24.363Z,5.00
2023-01-29T06:10:53.470Z,4.87
2023-01-29T06:13:23.720Z,5.03
2023-01-29T06:15:53.302Z,4.90
2023-01-29T06:18:22.353Z,4.73
2023-01-29T06:20:51.877Z,4.77
2023-01-29T06:23:20.975Z,4.77
2023-01-29T06:25:51.565Z,4.87
2023-01-29T06:28:20.982Z,4.73
2023-01-29T06:30:50.205Z,4.83
2023-01-29T06:33:19.063Z,4.80
2023-01-29T06:35:48.641Z,4.53
2023-01-29T06:38:17.854Z,4.53
2023-01-29T06:40:47.113Z,5.40
2023-01-29T06:43:17.518Z,4.50
2023-01-29T06:45:51.191Z,5.23
2023-01-29T06:48:21.228Z,4.90
2023-01-29T06:50:51.034Z,5.27
2023-01-29T06:53:20.370Z,5.10
2023-01-29T06:55:53.923Z,4.80
2023-01-29T06:58:24.514Z,4.83
2023-01-29T07:00:53.815Z,3.57
2023-01-29T07:03:23.075Z,4.17
2023-01-29T07:05:55.466Z,4.47
2023-01-29T07:08:24.608Z,4.87
2023-01-29T07:10:53.199Z,4.87
2023-01-29T07:13:23.851Z,4.40
2023-01-29T07:15:54.066Z,4.67
2023-01-29T07:18:22.788Z,4.57
2023-01-29T07:20:52.226Z,5.40
2023-01-29T07:23:21.562Z,4.60
2023-01-29T07:25:51.150Z,4.30
2023-01-29T07:28:20.875Z,4.80
2023-01-29T07:30:51.510Z,5.23
2023-01-29T07:33:20.796Z,3.73
2023-01-29T07:35:49.522Z,4.47
2023-01-29T07:41:39.097Z,4.10
2023-01-29T07:44:17.686Z,4.57
2023-01-29T07:46:48.428Z,4.90
2023-01-29T07:50:15.638Z,4.17
2023-01-29T07:53:06.278Z,4.53
2023-01-29T07:55:35.646Z,4.93
2023-01-29T07:58:08.494Z,4.67
2023-01-29T08:00:38.882Z,5.00
2023-01-29T08:03:13.307Z,2.43
2023-01-29T08:05:42.756Z,4.83
2023-01-29T08:08:15.435Z,4.17
2023-01-29T08:10:44.933Z,4.70
2023-01-29T08:13:14.128Z,5.27
2023-01-29T08:15:46.473Z,5.10
2023-01-29T08:18:19.228Z,4.77
2023-01-29T08:20:48.662Z,4.43
2023-01-29T08:23:32.124Z,4.60
2023-01-29T08:26:01.352Z,5.27
2023-01-29T08:28:30.787Z,5.00
2023-01-29T08:31:00.117Z,4.30
2023-01-29T08:33:42.100Z,3.80
2023-01-29T08:36:13.538Z,4.93
2023-01-29T08:38:42.790Z,3.80
2023-01-29T08:41:12.206Z,5.10
2023-01-29T08:43:42.957Z,5.03
2023-01-29T08:46:12.212Z,4.63
2023-01-29T08:48:42.688Z,4.93
2023-01-29T08:51:11.552Z,5.83
2023-01-29T08:53:40.455Z,4.27
2023-01-29T08:56:11.739Z,4.20
2023-01-29T08:58:40.919Z,4.80
2023-01-29T09:01:11.426Z,4.67
2023-01-29T09:03:45.030Z,4.20
2023-01-29T09:06:17.527Z,3.80
2023-01-29T09:08:50.249Z,5.00
2023-01-29T09:11:19.585Z,4.93
2023-01-29T09:13:48.144Z,5.70
2023-01-29T09:16:21.595Z,5.87
2023-01-29T09:18:52.325Z,5.40
2023-01-29T09:21:21.443Z,5.27
2023-01-29T09:23:51.259Z,5.43
2023-01-29T09:26:20.726Z,6.03
2023-01-29T09:28:50.356Z,3.77
2023-01-29T09:31:28.283Z,4.77
2023-01-29T09:33:59.147Z,5.70
2023-01-29T09:36:31.853Z,5.40
2023-01-29T09:39:03.909Z,5.50
2023-01-29T09:41:45.121Z,5.40
2023-01-29T09:44:21.884Z,5.60
2023-01-29T09:46:55.445Z,5.03
2023-01-29T09:49:28.557Z,5.83
2023-01-29T09:52:03.561Z,5.00
2023-01-29T09:54:45.812Z,4.80
2023-01-29T09:57:28.047Z,5.33
2023-01-29T10:00:00.594Z,5.50
2023-01-29T10:06:00.424Z,6.00
2023-01-29T10:08:53.086Z,5.77
2023-01-29T10:11:34.984Z,6.03
2023-01-29T10:14:20.697Z,5.47
2023-01-29T10:17:09.505Z,5.83
2023-01-29T10:19:59.528Z,5.30
2023-01-29T10:22:43.682Z,6.37
2023-01-29T10:25:18.366Z,5.53
2023-01-29T10:27:59.675Z,5.40
2023-01-29T10:30:35.286Z,5.60
2023-01-29T10:33:07.202Z,6.33
2023-01-29T10:35:40.823Z,5.67
2023-01-29T10:38:30.325Z,6.30
2023-01-29T10:41:13.244Z,5.67
2023-01-29T10:43:53.854Z,5.80
2023-01-29T10:46:33.613Z,5.87
2023-01-29T10:49:13.211Z,5.77
2023-01-29T10:52:00.282Z,5.50
2023-01-29T10:54:54.383Z,5.87
2023-01-29T10:57:50.720Z,6.07
2023-01-29T11:00:27.952Z,5.93
2023-01-29T11:02:57.347Z,5.90
2023-01-29T11:05:31.598Z,5.37
2023-01-29T11:08:07.318Z,5.40
2023-01-29T11:10:49.376Z,5.60
2023-01-29T11:13:20.191Z,6.10
2023-01-29T11:15:53.703Z,5.13
2023-01-29T11:18:24.697Z,5.43
2023-01-29T11:21:04.540Z,4.60
2023-01-29T11:23:47.104Z,4.80
2023-01-29T11:26:22.792Z,4.50
2023-01-29T11:28:53.446Z,4.10
2023-01-29T11:31:28.304Z,4.83
2023-01-29T11:34:07.736Z,5.07
2023-01-29T11:36:40.300Z,5.73
2023-01-29T11:39:21.874Z,4.77
2023-01-29T11:41:57.405Z,6.47
2023-01-29T11:44:35.157Z,5.53
2023-01-29T11:47:19.893Z,5.30
2023-01-29T11:49:51.509Z,5.70
2023-01-29T11:52:23.378Z,5.07
2023-01-29T11:54:56.786Z,5.03
2023-01-29T11:57:31.479Z,4.83
2023-01-29T12:00:05.190Z,4.83
2023-01-29T12:02:40.969Z,5.37
2023-01-29T12:05:18.130Z,5.77
2023-01-29T12:07:50.665Z,4.87
2023-01-29T12:10:34.393Z,5.30
2023-01-29T12:13:21.012Z,5.47
2023-01-29T12:15:53.203Z,5.67
2023-01-29T12:18:30.458Z,5.87
2023-01-29T12:21:04.790Z,5.00
2023-01-29T12:23:42.479Z,4.97
2023-01-29T12:26:16.218Z,5.33
2023-01-29T12:28:56.406Z,5.37
2023-01-29T12:31:31.098Z,5.20
2023-01-29T12:34:12.381Z,4.90
2023-01-29T12:36:47.769Z,4.27
2023-01-29T12:39:19.145Z,4.47
2023-01-29T12:41:54.408Z,4.10
2023-01-29T12:44:34.002Z,4.20
2023-01-29T12:47:08.005Z,4.27
2023-01-29T12:49:41.372Z,5.00
2023-01-29T12:52:15.277Z,4.33
2023-01-29T12:54:50.255Z,3.53
2023-01-29T12:57:26.206Z,3.97
2023-01-29T13:00:03.571Z,3.60
2023-01-29T13:02:39.523Z,3.50
2023-01-29T13:05:22.057Z,3.90
2023-01-29T13:07:56.478Z,4.00
2023-01-29T13:10:31.699Z,4.70
2023-01-29T13:13:06.905Z,4.50
2023-01-29T13:15:40.855Z,3.33
2023-01-29T13:18:32.975Z,3.23
2023-01-29T13:21:06.280Z,3.60
2023-01-29T13:23:39.276Z,3.43
2023-01-29T13:26:12.331Z,3.97
2023-01-29T13:28:42.631Z,2.93
2023-01-29T13:31:32.050Z,3.87
2023-01-29T13:34:09.603Z,4.17
2023-01-29T13:36:45.427Z,3.50
2023-01-29T13:39:26.246Z,4.67
2023-01-29T13:41:56.663Z,4.23
2023-01-29T13:44:28.997Z,4.97
2023-01-29T13:47:05.651Z,4.47
2023-01-29T13:49:41.137Z,4.80
2023-01-29T13:52:22.500Z,4.50
2023-01-29T13:54:59.101Z,4.57
2023-01-29T13:57:56.139Z,4.37
2023-01-29T14:00:59.717Z,5.20
2023-01-29T14:04:06.240Z,4.60
2023-01-29T14:06:52.781Z,4.53
2023-01-29T14:09:57.968Z,4.80
2023-01-29T14:12:48.029Z,4.47
2023-01-29T14:15:26.310Z,5.03
2023-01-29T14:18:08.331Z,4.10
2023-01-29T14:20:45.833Z,5.00
2023-01-29T14:23:37.750Z,4.53
2023-01-29T14:26:20.576Z,4.70
2023-01-29T14:29:00.273Z,4.67
2023-01-29T14:31:32.546Z,5.20
2023-01-29T14:34:08.601Z,4.87
2023-01-29T14:36:45.488Z,5.43
2023-01-29T14:39:32.100Z,5.07
2023-01-29T14:42:04.713Z,5.13
2023-01-29T14:45:07.766Z,5.93
2023-01-29T14:47:57.114Z,5.17
2023-01-29T14:50:48.816Z,5.83
2023-01-29T14:53:25.940Z,5.10
2023-01-29T14:56:01.886Z,6.03
2023-01-29T14:58:42.123Z,5.70
2023-01-29T15:01:21.937Z,6.07
2023-01-29T15:03:53.719Z,6.27
2023-01-29T15:06:31.140Z,5.97
2023-01-29T15:09:11.852Z,5.53
2023-01-29T15:11:50.967Z,6.20
2023-01-29T15:14:30.796Z,5.53
2023-01-29T15:17:17.762Z,6.27
2023-01-29T15:19:49.917Z,6.03
2023-01-29T15:22:21.755Z,5.00
2023-01-29T15:25:07.624Z,5.63
2023-01-29T15:27:38.535Z,6.07
2023-01-29T15:30:10.086Z,5.90
2023-01-29T15:32:42.194Z,6.53
2023-01-29T15:35:13.868Z,6.20
2023-01-29T15:37:43.331Z,6.60
2023-01-29T15:40:22.167Z,6.77
2023-01-29T15:42:54.220Z,7.40
2023-01-29T15:45:26.441Z,6.93
2023-01-29T15:48:00.250Z,7.07
2023-01-29T15:50:30.833Z,6.10
2023-01-29T15:53:03.941Z,7.20
2023-01-29T15:55:35.535Z,7.17
2023-01-29T15:58:05.082Z,8.00
2023-01-29T16:00:35.261Z,8.03
2023-01-29T16:03:16.449Z,8.50
2023-01-29T16:05:45.989Z,7.13
2023-01-29T16:08:17.011Z,7.23
2023-01-29T16:10:51.720Z,7.63
2023-01-29T16:13:24.431Z,6.47
2023-01-29T16:15:58.326Z,8.23
2023-01-29T16:18:35.181Z,7.37
2023-01-29T16:21:09.318Z,7.63
2023-01-29T16:23:45.585Z,7.87
2023-01-29T16:26:19.768Z,8.10
2023-01-29T16:28:50.389Z,8.57
2023-01-29T16:31:26.428Z,6.87
2023-01-29T16:33:57.098Z,8.23
2023-01-29T16:36:28.350Z,6.60
2023-01-29T16:39:00.690Z,8.50
2023-01-29T16:41:37.079Z,8.37
2023-01-29T16:44:29.401Z,7.77
2023-01-29T16:46:58.907Z,7.97
2023-01-29T16:49:51.615Z,8.37
2023-01-29T16:52:25.202Z,8.37
2023-01-29T16:54:54.922Z,7.57
2023-01-29T16:57:28.073Z,8.57
2023-01-29T17:00:05.671Z,7.10
2023-01-29T17:02:39.153Z,8.27
2023-01-29T17:05:12.354Z,7.93
2023-01-29T17:07:46.067Z,8.50
2023-01-29T17:10:20.031Z,7.60
2023-01-29T17:12:56.934Z,8.33
2023-01-29T17:15:37.854Z,7.73
2023-01-29T17:18:18.835Z,7.10
2023-01-29T17:20:49.091Z,8.10
2023-01-29T17:23:18.948Z,7.40
2023-01-29T17:25:49.627Z,7.63
2023-01-29T17:28:21.820Z,6.07
2023-01-29T17:31:05.268Z,7.30
2023-01-29T17:33:35.899Z,6.73
2023-01-29T17:36:06.257Z,5.67
2023-01-29T17:38:36.150Z,6.83
2023-01-29T17:41:12.655Z,6.27
2023-01-29T17:43:44.907Z,6.87
2023-01-29T17:46:18.400Z,7.23
2023-01-29T17:48:50.277Z,5.97
2023-01-29T17:51:21.204Z,6.87
2023-01-29T17:53:52.076Z,6.13
2023-01-29T17:56:27.975Z,4.83
2023-01-29T17:59:01.806Z,6.17
2023-01-29T18:01:31.378Z,7.67
2023-01-29T18:04:00.681Z,8.17
2023-01-29T18:06:31.903Z,6.90
2023-01-29T18:09:01.596Z,8.10
2023-01-29T18:11:31.497Z,7.90
2023-01-29T18:14:06.327Z,8.17
2023-01-29T18:16:45.607Z,9.30
2023-01-29T18:19:17.360Z,6.97
2023-01-29T18:21:47.143Z,8.93
2023-01-29T18:24:17.807Z,10.70
2023-01-29T18:26:51.538Z,15.00
2023-01-29T18:29:22.541Z,13.10
2023-01-29T18:31:52.858Z,12.77
2023-01-29T18:34:24.574Z,16.20
2023-01-29T18:36:54.494Z,16.57
2023-01-29T18:39:24.326Z,13.43
2023-01-29T18:41:55.566Z,13.70
2023-01-29T18:44:26.002Z,13.43
2023-01-29T18:46:55.589Z,12.40
2023-01-29T18:49:25.685Z,12.30
2023-01-29T18:51:57.111Z,13.47
2023-01-29T18:54:25.922Z,11.83
2023-01-29T18:57:13.895Z,14.83
2023-01-29T18:59:46.457Z,12.70
2023-01-29T19:02:17.870Z,13.17
2023-01-29T19:04:49.120Z,11.87
2023-01-29T19:07:18.684Z,15.47
2023-01-29T19:09:48.996Z,13.73
2023-01-29T19:12:18.689Z,14.20
2023-01-29T19:14:50.942Z,14.10
2023-01-29T19:17:20.978Z,13.33
2023-01-29T19:19:51.718Z,15.80
2023-01-29T19:22:21.563Z,13.93
2023-01-29T19:24:51.144Z,14.63
2023-01-29T19:27:22.235Z,13.63
2023-01-29T19:29:53.228Z,13.90
2023-01-29T19:32:23.252Z,10.90
2023-01-29T19:34:52.826Z,11.53
2023-01-29T19:37:22.300Z,11.67
2023-01-29T19:39:52.296Z,11.70
2023-01-29T19:42:22.635Z,12.23
2023-01-29T19:44:54.279Z,14.00
2023-01-29T19:47:23.484Z,13.43
2023-01-29T19:49:52.857Z,13.67
2023-01-29T19:52:50.854Z,12.67
2023-01-29T19:55:23.643Z,12.13
2023-01-29T19:57:55.036Z,11.83
2023-01-29T20:00:26.883Z,12.80
2023-01-29T20:02:56.689Z,12.73
2023-01-29T20:05:27.448Z,12.20
2023-01-29T20:07:57.717Z,12.80
2023-01-29T20:10:36.989Z,14.70
2023-01-29T20:13:07.347Z,13.20
2023-01-29T20:15:39.030Z,13.50
2023-01-29T20:18:12.252Z,15.53
2023-01-29T20:20:43.517Z,13.47
2023-01-29T20:23:13.346Z,14.90
2023-01-29T20:25:43.136Z,17.70
2023-01-29T20:28:15.504Z,16.23
2023-01-29T20:30:49.879Z,15.93
2023-01-29T20:33:19.524Z,16.50
2023-01-29T20:35:54.888Z,16.60
2023-01-29T20:38:30.523Z,18.43
2023-01-29T20:41:05.664Z,16.37
2023-01-29T20:43:35.492Z,17.03
2023-01-29T20:46:08.150Z,15.83
2023-01-29T20:48:37.770Z,14.50
2023-01-29T20:51:09.883Z,14.97
2023-01-29T20:53:41.431Z,15.43
2023-01-29T20:56:11.877Z,16.17
2023-01-29T20:58:42.061Z,15.80
2023-01-29T21:01:16.593Z,12.93
2023-01-29T21:03:47.219Z,13.67
2023-01-29T21:06:17.782Z,11.90
2023-01-29T21:08:49.068Z,15.30
2023-01-29T21:11:21.491Z,14.90
2023-01-29T21:13:53.585Z,14.10
2023-01-29T21:16:24.141Z,11.30
2023-01-29T21:18:58.501Z,11.60
2023-01-29T21:21:28.250Z,10.97
2023-01-29T21:23:58.568Z,10.50
2023-01-29T21:26:27.888Z,10.43
2023-01-29T21:28:56.956Z,9.30
2023-01-29T21:31:27.816Z,10.07
2023-01-29T21:33:57.258Z,10.80
2023-01-29T21:36:27.369Z,8.20
2023-01-29T21:38:56.722Z,8.70
2023-01-29T21:41:46.661Z,8.63
2023-01-29T21:44:14.676Z,9.40
2023-01-29T21:46:45.273Z,9.03
2023-01-29T21:49:14.217Z,7.93
2023-01-29T21:51:43.541Z,8.17
2023-01-29T21:54:13.038Z,8.13
2023-01-29T21:56:42.427Z,8.87
2023-01-29T21:59:11.893Z,8.60
2023-01-29T22:01:41.091Z,6.20
2023-01-29T22:04:12.529Z,7.93
2023-01-29T22:06:41.735Z,8.17
2023-01-29T22:09:12.167Z,7.70
2023-01-29T22:11:42.494Z,7.90
2023-01-29T22:14:11.769Z,7.47
2023-01-29T22:16:41.201Z,7.50
2023-01-29T22:19:11.742Z,8.83
2023-01-29T22:21:41.308Z,7.40
2023-01-29T22:24:11.015Z,6.27
2023-01-29T22:26:41.181Z,7.30
2023-01-29T22:29:13.099Z,8.20
2023-01-29T22:31:42.297Z,7.93
2023-01-29T22:34:13.913Z,8.13
2023-01-29T22:36:43.557Z,7.60
2023-01-29T22:39:12.662Z,8.37
2023-01-29T22:41:41.872Z,7.67
2023-01-29T22:44:12.993Z,8.17
2023-01-29T22:46:42.319Z,8.67
2023-01-29T22:49:13.624Z,8.20
2023-01-29T22:51:42.947Z,9.07
2023-01-29T22:54:13.059Z,8.63
2023-01-29T22:56:42.449Z,9.20
2023-01-29T22:59:12.585Z,9.03
2023-01-29T23:01:41.841Z,9.20
2023-01-29T23:04:12.615Z,8.50
2023-01-29T23:06:41.355Z,9.40
2023-01-29T23:09:11.116Z,8.43
2023-01-29T23:11:40.616Z,9.17
2023-01-29T23:14:10.574Z,7.70
2023-01-29T23:16:39.719Z,8.23
2023-01-29T23:19:09.117Z,7.80
2023-01-29T23:21:40.161Z,9.27
2023-01-29T23:24:10.644Z,5.97
2023-01-29T23:26:56.750Z,8.50
2023-01-29T23:29:26.089Z,7.33
2023-01-29T23:31:55.565Z,8.23
2023-01-29T23:34:24.794Z,7.83
2023-01-29T23:36:55.667Z,8.20
2023-01-29T23:39:24.854Z,8.13
2023-01-29T23:41:54.167Z,8.23
2023-01-29T23:44:25.309Z,6.73
2023-01-29T23:46:54.914Z,9.03
2023-01-29T23:49:23.833Z,8.67
2023-01-29T23:51:54.612Z,8.30
2023-01-29T23:54:23.742Z,8.23
2023-01-29T23:56:52.811Z,8.57
2023-01-29T23:59:22.442Z,8.93
